createdAt,value
2019-02-19T00:58:57.875Z,9.40
2019-02-19T01:01:31.354Z,8.45
2019-02-19T01:04:05.845Z,10.18
2019-02-19T01:06:39.148Z,8.58
2019-02-19T01:09:12.153Z,9.18
2019-02-19T01:11:45.868Z,10.55
2019-02-19T01:14:19.374Z,9.95
2019-02-19T01:16:52.336Z,9.80
2019-02-19T01:19:25.570Z,8.93
2019-02-19T01:21:58.632Z,9.50
2019-02-19T01:24:31.822Z,9.05
2019-02-19T01:27:05.154Z,9.75
2019-02-19T01:29:38.632Z,9.88
2019-02-19T01:32:11.997Z,10.88
2019-02-19T01:34:44.210Z,9.70
2019-02-19T01:37:17.639Z,10.98
2019-02-19T01:39:50.394Z,9.30
2019-02-19T01:42:23.663Z,8.58
2019-02-19T01:44:55.936Z,10.30
2019-02-19T01:47:29.278Z,9.70
2019-02-19T01:50:02.306Z,10.03
2019-02-19T01:52:35.169Z,8.90
2019-02-19T01:55:07.962Z,9.83
2019-02-19T01:57:41.286Z,10.68
2019-02-19T02:00:13.586Z,8.98
2019-02-19T02:02:46.692Z,11.03
2019-02-19T02:05:20.028Z,9.68
2019-02-19T02:07:53.006Z,10.00
2019-02-19T02:10:26.001Z,9.80
2019-02-19T02:13:02.247Z,10.08
2019-02-19T02:15:42.435Z,10.23
2019-02-19T02:18:13.362Z,10.08
2019-02-19T02:20:46.122Z,10.70
2019-02-19T02:23:18.858Z,9.48
2019-02-19T02:25:52.231Z,10.68
2019-02-19T02:28:25.891Z,9.40
2019-02-19T02:30:58.890Z,10.08
2019-02-19T02:33:31.790Z,11.03
2019-02-19T02:36:05.579Z,11.70
2019-02-19T02:38:39.361Z,10.65
2019-02-19T02:41:13.210Z,10.70
2019-02-19T02:43:46.101Z,10.50
2019-02-19T02:46:19.265Z,10.48
2019-02-19T02:48:52.905Z,12.05
2019-02-19T02:51:27.416Z,11.63
2019-02-19T02:54:00.917Z,11.22
2019-02-19T02:56:34.635Z,11.55
2019-02-19T02:59:07.830Z,11.68
2019-02-19T03:01:40.497Z,11.95
2019-02-19T03:04:14.322Z,11.70
2019-02-19T03:07:00.683Z,11.15
2019-02-19T03:09:33.865Z,11.50
2019-02-19T03:12:07.591Z,13.48
2019-02-19T03:14:41.216Z,12.78
2019-02-19T03:17:14.180Z,12.15
2019-02-19T03:19:47.158Z,13.30
2019-02-19T03:22:20.372Z,13.40
2019-02-19T03:24:53.900Z,14.35
2019-02-19T03:27:26.487Z,13.28
2019-02-19T03:29:59.709Z,14.70
2019-02-19T03:32:33.184Z,12.98
2019-02-19T03:35:06.457Z,14.23
2019-02-19T03:37:40.010Z,16.02
2019-02-19T03:40:12.551Z,14.28
2019-02-19T03:42:45.210Z,14.10
2019-02-19T03:45:18.776Z,14.23
2019-02-19T03:47:51.797Z,14.73
2019-02-19T03:50:26.596Z,15.20
2019-02-19T03:52:59.993Z,16.55
2019-02-19T03:55:33.535Z,15.75
2019-02-19T03:58:06.601Z,17.12
2019-02-19T04:00:39.837Z,16.57
2019-02-19T04:03:13.117Z,16.30
2019-02-19T04:05:46.702Z,16.85
2019-02-19T04:08:19.867Z,15.48
2019-02-19T04:10:53.198Z,18.23
2019-02-19T04:13:26.590Z,18.60
2019-02-19T04:16:01.106Z,18.55
2019-02-19T04:18:34.370Z,18.57
2019-02-19T04:21:07.778Z,18.80
2019-02-19T04:23:41.093Z,19.85
2019-02-19T04:26:14.977Z,20.50
2019-02-19T04:28:48.723Z,21.00
2019-02-19T04:31:22.540Z,18.62
2019-02-19T04:33:56.287Z,19.42
2019-02-19T04:36:29.606Z,20.30
2019-02-19T04:39:03.163Z,19.12
2019-02-19T04:41:38.454Z,19.92
2019-02-19T04:44:10.789Z,19.30
2019-02-19T04:46:44.218Z,20.08
2019-02-19T04:49:17.292Z,19.40
2019-02-19T04:51:50.580Z,20.05
2019-02-19T04:54:23.294Z,19.05
2019-02-19T04:56:56.915Z,21.70
2019-02-19T04:59:29.864Z,20.32
2019-02-19T05:02:03.093Z,20.05
2019-02-19T05:04:36.045Z,21.00
2019-02-19T05:07:09.657Z,22.05
2019-02-19T05:09:43.489Z,18.90
2019-02-19T05:12:16.502Z,21.45
2019-02-19T05:14:49.939Z,19.82
2019-02-19T05:17:23.773Z,18.77
2019-02-19T05:19:57.518Z,19.62
2019-02-19T05:22:31.386Z,19.98
2019-02-19T05:25:04.844Z,19.73
2019-02-19T05:27:37.628Z,19.65
2019-02-19T05:30:11.468Z,20.88
2019-02-19T05:32:44.425Z,22.60
2019-02-19T05:35:17.956Z,20.37
2019-02-19T05:37:50.913Z,20.05
2019-02-19T05:40:23.780Z,18.80
2019-02-19T05:42:56.807Z,21.65
2019-02-19T05:45:30.663Z,21.12
2019-02-19T05:48:05.233Z,21.00
2019-02-19T05:50:38.872Z,22.25
2019-02-19T05:53:12.423Z,20.72
2019-02-19T05:55:46.431Z,21.27
2019-02-19T05:58:20.419Z,22.77
2019-02-19T06:00:53.004Z,23.60
2019-02-19T06:03:26.258Z,24.92
2019-02-19T06:05:59.395Z,23.60
2019-02-19T06:08:32.980Z,22.73
2019-02-19T06:11:06.845Z,21.60
2019-02-19T06:13:40.719Z,24.18
2019-02-19T06:16:13.990Z,23.50
2019-02-19T06:18:47.118Z,23.10
2019-02-19T06:21:21.662Z,24.47
2019-02-19T06:23:54.627Z,24.12
2019-02-19T06:26:27.649Z,23.27
2019-02-19T06:29:01.294Z,22.67
2019-02-19T06:31:34.358Z,24.30
2019-02-19T06:34:07.391Z,23.05
2019-02-19T06:36:40.640Z,23.02
2019-02-19T06:39:14.483Z,21.52
2019-02-19T06:41:47.510Z,23.15
2019-02-19T06:44:20.981Z,21.25
2019-02-19T06:46:53.671Z,22.05
2019-02-19T06:49:27.393Z,21.25
2019-02-19T06:52:00.369Z,21.17
2019-02-19T06:54:33.769Z,21.40
2019-02-19T06:57:06.751Z,22.67
2019-02-19T06:59:40.166Z,21.52
2019-02-19T07:02:31.573Z,24.02
2019-02-19T07:05:07.899Z,22.60
2019-02-19T07:07:41.330Z,21.02
2019-02-19T07:10:14.754Z,19.60
2019-02-19T07:12:47.159Z,21.33
2019-02-19T07:15:20.613Z,19.55
2019-02-19T07:17:53.284Z,20.15
2019-02-19T07:20:26.360Z,21.75
2019-02-19T07:22:59.864Z,21.12
2019-02-19T07:25:33.265Z,22.45
2019-02-19T07:28:06.344Z,21.68
2019-02-19T07:30:40.176Z,22.55
2019-02-19T07:33:14.007Z,19.57
2019-02-19T07:35:46.972Z,22.75
2019-02-19T07:38:19.942Z,20.05
2019-02-19T07:40:53.522Z,21.42
2019-02-19T07:43:26.894Z,21.17
2019-02-19T07:46:00.714Z,21.93
2019-02-19T07:48:34.443Z,23.30
2019-02-19T07:51:07.454Z,21.33
2019-02-19T07:53:40.433Z,22.67
2019-02-19T07:56:13.374Z,23.35
2019-02-19T07:58:46.352Z,20.95
2019-02-19T08:01:20.167Z,22.62
2019-02-19T08:03:53.948Z,20.97
2019-02-19T08:06:27.410Z,22.35
2019-02-19T08:09:02.885Z,21.42
2019-02-19T08:11:37.799Z,22.48
2019-02-19T08:14:12.620Z,21.23
2019-02-19T08:16:45.275Z,20.88
2019-02-19T08:19:19.476Z,21.27
2019-02-19T08:21:52.817Z,20.75
2019-02-19T08:24:26.061Z,20.08
2019-02-19T08:26:59.702Z,23.00
2019-02-19T08:29:33.257Z,21.23
2019-02-19T08:32:06.731Z,23.27
2019-02-19T08:34:39.691Z,22.32
2019-02-19T08:37:13.607Z,23.00
2019-02-19T08:39:46.757Z,20.35
2019-02-19T08:42:20.789Z,20.48
2019-02-19T08:44:54.324Z,21.15
2019-02-19T08:47:26.646Z,20.92
2019-02-19T08:49:59.994Z,19.52
2019-02-19T08:52:32.961Z,21.52
2019-02-19T08:55:06.761Z,20.77
2019-02-19T08:57:39.855Z,19.32
2019-02-19T09:00:13.559Z,20.10
2019-02-19T09:02:46.595Z,20.12
2019-02-19T09:05:21.474Z,19.45
2019-02-19T09:07:55.269Z,19.52
2019-02-19T09:10:28.646Z,20.08
2019-02-19T09:13:02.360Z,19.73
2019-02-19T09:15:36.070Z,18.57
2019-02-19T09:18:09.591Z,17.65
2019-02-19T09:20:43.374Z,18.55
2019-02-19T09:23:16.836Z,18.05
2019-02-19T09:25:50.639Z,17.75
2019-02-19T09:28:24.137Z,16.17
2019-02-19T09:30:57.549Z,16.27
2019-02-19T09:33:30.978Z,15.32
2019-02-19T09:36:05.312Z,18.02
2019-02-19T09:38:38.612Z,17.27
2019-02-19T09:41:11.312Z,17.70
2019-02-19T09:43:44.197Z,16.20
2019-02-19T09:46:17.301Z,16.85
2019-02-19T09:48:50.855Z,17.40
2019-02-19T09:51:24.249Z,15.30
2019-02-19T09:53:57.316Z,15.65
2019-02-19T09:56:31.100Z,15.75
2019-02-19T09:59:04.149Z,15.05
2019-02-19T10:01:37.453Z,15.10
2019-02-19T10:04:13.500Z,15.08
2019-02-19T10:06:47.020Z,14.23
2019-02-19T10:09:19.792Z,13.90
2019-02-19T10:11:53.577Z,14.80
2019-02-19T10:14:26.341Z,13.85
2019-02-19T10:17:00.060Z,11.80
2019-02-19T10:19:33.147Z,14.05
2019-02-19T10:22:06.081Z,13.78
2019-02-19T10:24:40.791Z,12.88
2019-02-19T10:27:14.803Z,13.03
2019-02-19T10:29:48.161Z,12.47
2019-02-19T10:32:21.738Z,12.60
2019-02-19T10:34:54.509Z,13.35
2019-02-19T10:37:28.234Z,11.95
2019-02-19T10:40:00.757Z,13.65
2019-02-19T10:42:34.063Z,11.40
2019-02-19T10:45:08.627Z,12.65
2019-02-19T10:47:41.658Z,11.90
2019-02-19T10:50:15.165Z,13.18
2019-02-19T10:52:47.841Z,12.65
2019-02-19T10:55:20.840Z,12.68
2019-02-19T10:57:55.161Z,12.90
2019-02-19T11:00:27.970Z,13.58
2019-02-19T11:03:01.552Z,10.75
2019-02-19T11:05:34.944Z,12.45
2019-02-19T11:08:08.102Z,11.33
2019-02-19T11:10:41.539Z,12.37
2019-02-19T11:13:14.730Z,10.23
2019-02-19T11:15:47.713Z,10.08
2019-02-19T11:18:28.044Z,11.57
2019-02-19T11:20:56.286Z,10.10
2019-02-19T11:23:29.421Z,9.98
2019-02-19T11:26:02.392Z,9.25
2019-02-19T11:28:36.967Z,9.68
2019-02-19T11:31:10.051Z,9.33
2019-02-19T11:33:43.219Z,8.95
2019-02-19T11:36:16.227Z,9.83
2019-02-19T11:38:50.174Z,9.48
2019-02-19T11:41:23.625Z,9.88
2019-02-19T11:43:56.719Z,8.75
2019-02-19T11:46:29.691Z,10.32
2019-02-19T11:49:03.094Z,9.20
2019-02-19T11:51:36.804Z,8.90
2019-02-19T11:54:10.204Z,8.08
2019-02-19T11:56:43.506Z,9.50
2019-02-19T11:59:16.526Z,8.40
2019-02-19T12:01:49.368Z,8.25
2019-02-19T12:04:22.351Z,7.90
2019-02-19T12:06:54.966Z,9.95
2019-02-19T12:09:28.536Z,7.58
2019-02-19T12:12:02.244Z,7.08
2019-02-19T12:14:35.838Z,6.85
2019-02-19T12:17:08.957Z,8.08
2019-02-19T12:19:42.546Z,6.15
2019-02-19T12:22:15.157Z,5.90
2019-02-19T12:24:48.805Z,7.47
2019-02-19T12:27:22.213Z,7.05
2019-02-19T12:29:56.159Z,6.70
2019-02-19T12:32:29.609Z,6.85
2019-02-19T12:35:02.379Z,7.10
2019-02-19T12:37:35.509Z,7.35
2019-02-19T12:40:09.606Z,7.22
2019-02-19T12:42:42.584Z,7.30
2019-02-19T12:45:15.625Z,6.70
2019-02-19T12:47:49.104Z,6.80
2019-02-19T12:50:21.694Z,7.90
2019-02-19T12:52:54.756Z,6.83
2019-02-19T12:55:28.496Z,6.78
2019-02-19T12:58:01.948Z,6.92
2019-02-19T13:00:35.661Z,7.33
2019-02-19T13:03:08.988Z,7.45
2019-02-19T13:05:41.932Z,8.43
2019-02-19T13:08:14.917Z,7.12
2019-02-19T13:10:47.927Z,7.70
2019-02-19T13:13:21.088Z,6.85
2019-02-19T13:15:54.521Z,8.00
2019-02-19T13:18:28.119Z,6.65
2019-02-19T13:21:01.637Z,7.80
2019-02-19T13:23:34.862Z,7.78
2019-02-19T13:26:08.369Z,7.35
2019-02-19T13:28:42.208Z,6.80
2019-02-19T13:31:16.015Z,6.37
2019-02-19T13:33:48.590Z,6.55
2019-02-19T13:36:21.870Z,6.40
2019-02-19T13:38:55.238Z,6.78
2019-02-19T13:41:27.976Z,7.30
2019-02-19T13:44:01.661Z,6.92
2019-02-19T13:46:36.416Z,5.75
2019-02-19T13:49:12.296Z,5.53
2019-02-19T13:51:45.865Z,7.05
2019-02-19T13:54:30.535Z,6.12
2019-02-19T13:57:03.717Z,7.20
2019-02-19T13:59:36.900Z,7.10
2019-02-19T14:02:09.713Z,7.28
2019-02-19T14:04:43.208Z,6.83
2019-02-19T14:07:16.492Z,6.53
2019-02-19T14:09:50.174Z,6.90
2019-02-19T14:12:23.189Z,6.60
2019-02-19T14:15:00.773Z,7.25
2019-02-19T14:17:34.638Z,6.60
2019-02-19T14:20:28.863Z,7.03
2019-02-19T14:23:27.337Z,6.10
2019-02-19T14:26:13.965Z,5.95
2019-02-19T14:28:54.840Z,6.12
2019-02-19T14:31:55.839Z,6.55
2019-02-19T14:34:48.494Z,6.90
2019-02-19T14:37:52.009Z,6.35
2019-02-19T14:40:47.842Z,6.83
2019-02-19T14:43:40.410Z,7.87
2019-02-19T14:46:36.105Z,7.00
2019-02-19T14:49:37.513Z,6.65
2019-02-19T14:52:35.230Z,6.67
2019-02-19T14:55:33.517Z,7.00
2019-02-19T14:58:25.844Z,7.65
2019-02-19T15:01:12.262Z,7.83
2019-02-19T15:04:17.113Z,8.20
2019-02-19T15:07:07.807Z,8.35
2019-02-19T15:10:18.576Z,7.25
2019-02-19T15:13:19.408Z,7.28
2019-02-19T15:16:11.063Z,7.58
2019-02-19T15:19:02.671Z,7.22
2019-02-19T15:22:01.055Z,6.83
2019-02-19T15:24:49.917Z,6.92
2019-02-19T15:27:29.903Z,8.28
2019-02-19T15:30:22.286Z,7.42
2019-02-19T15:33:14.332Z,7.70
2019-02-19T15:36:09.982Z,6.97
2019-02-19T15:39:09.273Z,7.35
2019-02-19T15:42:05.567Z,7.35
2019-02-19T15:45:02.958Z,7.65
2019-02-19T15:47:55.822Z,7.12
2019-02-19T15:50:51.612Z,7.60
2019-02-19T15:53:34.147Z,8.53
2019-02-19T15:56:19.936Z,8.03
2019-02-19T15:59:12.629Z,7.85
2019-02-19T16:01:52.114Z,7.37
2019-02-19T16:04:56.512Z,8.20
2019-02-19T16:07:52.364Z,7.67
2019-02-19T16:10:40.934Z,8.13
2019-02-19T16:13:24.947Z,8.35
2019-02-19T16:16:15.980Z,7.00
2019-02-19T16:19:05.836Z,8.93
2019-02-19T16:21:50.310Z,7.40
2019-02-19T16:24:59.192Z,7.70
2019-02-19T16:27:55.360Z,7.90
2019-02-19T16:30:47.127Z,7.67
2019-02-19T16:33:42.858Z,7.20
2019-02-19T16:36:28.813Z,7.58
2019-02-19T16:39:21.485Z,6.70
2019-02-19T16:42:04.901Z,6.78
2019-02-19T16:45:09.435Z,6.95
2019-02-19T16:48:00.718Z,7.10
2019-02-19T16:51:02.684Z,6.55
2019-02-19T16:53:58.943Z,6.35
2019-02-19T16:56:50.214Z,6.42
2019-02-19T16:59:43.327Z,6.10
2019-02-19T17:02:48.498Z,5.53
2019-02-19T17:05:37.641Z,5.90
2019-02-19T17:08:18.170Z,5.42
2019-02-19T17:11:11.221Z,5.70
2019-02-19T17:14:01.932Z,5.25
2019-02-19T17:16:55.111Z,5.58
2019-02-19T17:19:46.182Z,5.95
2019-02-19T17:22:54.020Z,5.70
2019-02-19T17:25:49.877Z,5.42
2019-02-19T17:28:42.508Z,4.53
2019-02-19T17:31:24.608Z,5.08
2019-02-19T17:34:14.856Z,5.53
2019-02-19T17:37:07.195Z,5.12
2019-02-19T17:40:03.048Z,5.55
2019-02-19T17:42:55.130Z,4.55
2019-02-19T17:45:46.747Z,4.53
2019-02-19T17:48:42.159Z,4.47
2019-02-19T17:51:34.767Z,4.37
2019-02-19T17:54:17.194Z,4.08
2019-02-19T17:57:16.061Z,3.98
2019-02-19T18:00:09.786Z,4.37
2019-02-19T18:03:05.293Z,4.35
2019-02-19T18:06:01.434Z,3.47
2019-02-19T18:08:41.185Z,3.70
2019-02-19T18:11:33.052Z,4.17
2019-02-19T18:14:24.635Z,3.72
2019-02-19T18:17:29.179Z,4.35
2019-02-19T18:20:02.562Z,4.33
2019-02-19T18:22:36.500Z,4.25
2019-02-19T18:25:09.265Z,4.62
2019-02-19T18:27:43.321Z,4.60
2019-02-19T18:30:17.286Z,5.35
2019-02-19T18:32:50.146Z,4.97
2019-02-19T18:35:23.718Z,4.80
2019-02-19T18:37:56.897Z,5.70
2019-02-19T18:40:30.817Z,4.97
2019-02-19T18:43:03.964Z,3.87
2019-02-19T18:45:37.111Z,3.87
2019-02-19T18:48:09.452Z,3.42
2019-02-19T18:50:43.029Z,3.62
2019-02-19T18:53:15.809Z,3.35
2019-02-19T18:55:51.138Z,4.87
2019-02-19T18:58:23.961Z,3.65
2019-02-19T19:00:58.528Z,3.65
2019-02-19T19:03:32.110Z,3.45
2019-02-19T19:06:05.721Z,3.80
2019-02-19T19:08:39.771Z,3.55
2019-02-19T19:11:13.132Z,3.75
2019-02-19T19:13:46.298Z,3.15
2019-02-19T19:16:19.906Z,3.42
2019-02-19T19:18:53.431Z,3.15
2019-02-19T19:21:27.532Z,3.75
2019-02-19T19:24:01.243Z,3.10
2019-02-19T19:26:34.310Z,2.75
2019-02-19T19:29:08.447Z,3.00
2019-02-19T19:31:41.418Z,2.95
2019-02-19T19:34:14.451Z,4.30
2019-02-19T19:36:47.588Z,2.95
2019-02-19T19:39:20.355Z,3.00
2019-02-19T19:41:53.473Z,3.35
2019-02-19T19:44:26.949Z,2.92
2019-02-19T19:47:00.076Z,4.15
2019-02-19T19:49:32.837Z,2.70
2019-02-19T19:52:06.388Z,3.75
2019-02-19T19:54:39.450Z,3.02
2019-02-19T19:57:13.386Z,3.10
2019-02-19T19:59:46.156Z,3.37
2019-02-19T20:02:20.274Z,3.95
2019-02-19T20:04:53.357Z,3.25
2019-02-19T20:07:26.957Z,2.52
2019-02-19T20:10:01.155Z,3.10
2019-02-19T20:12:36.090Z,3.22
2019-02-19T20:15:09.593Z,3.80
2019-02-19T20:17:42.407Z,4.35
2019-02-19T20:20:16.217Z,3.80
2019-02-19T20:22:49.843Z,3.80
2019-02-19T20:25:23.344Z,3.35
2019-02-19T20:27:57.623Z,4.80
2019-02-19T20:30:30.707Z,3.15
2019-02-19T20:33:04.180Z,3.70
2019-02-19T20:35:37.377Z,3.02
2019-02-19T20:38:10.582Z,3.35
2019-02-19T20:40:44.159Z,4.15
2019-02-19T20:43:18.574Z,4.05
2019-02-19T20:45:51.377Z,3.65
2019-02-19T20:48:24.939Z,5.17
2019-02-19T20:50:58.083Z,3.75
2019-02-19T20:53:31.661Z,4.60
2019-02-19T20:56:04.875Z,4.40
2019-02-19T20:58:38.463Z,4.62
2019-02-19T21:01:12.480Z,4.03
2019-02-19T21:03:45.657Z,4.37
2019-02-19T21:06:18.862Z,4.53
2019-02-19T21:08:53.085Z,4.80
2019-02-19T21:11:27.709Z,4.95
2019-02-19T21:14:02.773Z,4.08
2019-02-19T21:16:36.347Z,4.67
2019-02-19T21:19:09.861Z,4.50
2019-02-19T21:21:45.137Z,3.65
2019-02-19T21:24:17.923Z,6.70
2019-02-19T21:26:51.033Z,4.22
2019-02-19T21:29:24.846Z,3.50
2019-02-19T21:31:58.334Z,3.90
2019-02-19T21:34:32.239Z,4.30
2019-02-19T21:37:05.850Z,3.27
2019-02-19T21:39:38.948Z,4.22
2019-02-19T21:42:11.753Z,3.67
2019-02-19T21:44:45.255Z,3.90
2019-02-19T21:47:18.941Z,3.72
2019-02-19T21:49:52.012Z,3.72
2019-02-19T21:52:25.137Z,4.00
2019-02-19T21:54:58.551Z,3.55
2019-02-19T21:57:32.486Z,4.58
2019-02-19T22:00:07.061Z,3.40
2019-02-19T22:02:42.396Z,3.58
2019-02-19T22:05:15.114Z,3.60
2019-02-19T22:07:47.991Z,3.95
2019-02-19T22:10:20.837Z,3.58
2019-02-19T22:12:53.927Z,4.50
2019-02-19T22:15:27.616Z,4.35
2019-02-19T22:17:59.928Z,3.52
2019-02-19T22:20:53.059Z,4.78
2019-02-19T22:23:26.563Z,4.10
2019-02-19T22:25:59.659Z,4.30
2019-02-19T22:28:32.338Z,4.05
2019-02-19T22:31:05.757Z,4.87
2019-02-19T22:33:40.149Z,4.75
2019-02-19T22:36:13.649Z,4.10
2019-02-19T22:38:46.792Z,4.22
2019-02-19T22:41:20.146Z,4.67
2019-02-19T22:43:52.918Z,5.00
2019-02-19T22:46:25.927Z,4.85
2019-02-19T22:48:59.143Z,4.97
2019-02-19T22:51:33.024Z,4.00
2019-02-19T22:54:37.978Z,4.10
2019-02-19T22:57:11.062Z,4.65
2019-02-19T22:59:43.934Z,4.85
2019-02-19T23:02:20.115Z,4.95
2019-02-19T23:04:53.388Z,5.70
2019-02-19T23:07:26.104Z,5.37
2019-02-19T23:10:00.287Z,4.72
2019-02-19T23:12:33.786Z,5.10
2019-02-19T23:15:07.751Z,5.78
2019-02-19T23:17:40.502Z,5.90
2019-02-19T23:20:13.956Z,5.60
2019-02-19T23:22:47.049Z,4.72
2019-02-19T23:25:20.567Z,5.17
2019-02-19T23:27:53.663Z,5.70
2019-02-19T23:30:26.410Z,6.20
2019-02-19T23:32:59.105Z,5.25
2019-02-19T23:35:39.885Z,6.20
2019-02-19T23:38:13.683Z,6.08
2019-02-19T23:40:47.396Z,6.37
2019-02-19T23:43:20.547Z,6.67
2019-02-19T23:45:53.175Z,6.83
2019-02-19T23:48:26.249Z,6.03
2019-02-19T23:50:59.755Z,5.62
2019-02-19T23:53:34.179Z,6.25
2019-02-19T23:56:07.564Z,5.90
2019-02-19T23:58:40.205Z,7.03
